Time;durP1;ratioP1;P1;durP2;ratioP2;P2;SDS_P1;SDS_P2;PMS_P1;PMS_P2;Temp;Humidity;BMP_temperature;BMP_pressure;BME280_temperature;BME280_humidity;BME280_pressure;Samples;Min_cycle;Max_cycle;Signal;HPM_P1;HPM_P2
2022/03/28 00:01:52;;;;;;;12.40;6.32;;;;;;;20.40;41.79;102931.41;5046003;28;20072;-51
2022/03/28 00:04:19;;;;;;;16.00;7.03;;;;;;;20.38;42.22;102925.28;5045568;28;20102;-51
2022/03/28 00:06:46;;;;;;;11.68;5.55;;;;;;;20.37;42.17;102921.72;5045388;28;20428;-52
2022/03/28 00:09:12;;;;;;;15.02;5.57;;;;;;;20.36;41.96;102924.56;5045328;28;20049;-51
2022/03/28 00:11:39;;;;;;;15.57;6.93;;;;;;;20.35;42.13;102918.31;5044641;28;20127;-51
2022/03/28 00:14:06;;;;;;;11.95;5.95;;;;;;;20.33;42.34;102914.84;5046009;28;20055;-51
2022/03/28 00:16:32;;;;;;;12.20;6.03;;;;;;;20.30;42.11;102911.53;5044067;28;20051;-51
2022/03/28 00:18:59;;;;;;;14.65;5.60;;;;;;;20.30;42.05;102906.16;5043859;28;20048;-51
2022/03/28 00:21:26;;;;;;;11.60;5.55;;;;;;;20.27;42.36;102901.88;5044304;28;20132;-50
2022/03/28 00:23:52;;;;;;;13.82;5.82;;;;;;;20.28;42.09;102900.03;5044126;28;20044;-51
2022/03/28 00:26:19;;;;;;;14.07;5.88;;;;;;;20.25;41.99;102894.88;5046188;28;20127;-47
2022/03/28 00:28:46;;;;;;;13.68;5.47;;;;;;;20.24;42.12;102894.03;5041012;28;20051;-52
2022/03/28 00:31:13;;;;;;;11.73;5.35;;;;;;;20.24;42.22;102882.41;5046191;28;20083;-52
2022/03/28 00:33:40;;;;;;;10.85;5.90;;;;;;;20.20;41.90;102884.47;5050385;28;20513;-51
2022/03/28 00:36:07;;;;;;;10.55;5.20;;;;;;;20.19;42.15;102885.47;5046289;28;20343;-53
2022/03/28 00:38:33;;;;;;;11.40;5.47;;;;;;;20.18;41.74;102883.72;5047647;28;20324;-53
2022/03/28 00:41:00;;;;;;;12.63;4.88;;;;;;;20.17;41.87;102882.00;5045230;28;20051;-50
2022/03/28 00:43:27;;;;;;;11.18;5.25;;;;;;;20.16;42.02;102870.38;5046583;28;20119;-52
2022/03/28 00:45:54;;;;;;;13.02;5.25;;;;;;;20.13;42.28;102870.63;5045841;28;20597;-51
2022/03/28 00:48:20;;;;;;;11.45;5.03;;;;;;;20.12;42.38;102870.75;5043418;28;20396;-53
2022/03/28 00:50:48;;;;;;;9.40;4.40;;;;;;;20.12;42.05;102878.81;5046295;28;20037;-52
2022/03/28 00:53:16;;;;;;;13.50;5.00;;;;;;;20.10;42.05;102864.59;5048121;28;20079;-53
2022/03/28 00:55:45;;;;;;;11.82;4.43;;;;;;;20.08;41.95;102875.50;5042457;28;20055;-53
2022/03/28 00:58:11;;;;;;;12.02;4.72;;;;;;;20.05;42.00;102870.34;5040436;28;20136;-50
2022/03/28 01:00:38;;;;;;;12.23;4.90;;;;;;;20.05;42.47;102861.41;5045967;28;20036;-50
2022/03/28 01:03:05;;;;;;;9.95;4.20;;;;;;;20.03;42.65;102861.56;5042353;28;20049;-50
2022/03/28 01:05:32;;;;;;;12.23;4.70;;;;;;;20.02;42.01;102857.16;5046841;28;20052;-50
2022/03/28 01:08:00;;;;;;;9.93;4.65;;;;;;;20.01;42.51;102858.09;5046076;28;20051;-51
2022/03/28 01:10:27;;;;;;;9.80;4.50;;;;;;;19.99;42.39;102851.13;5042856;28;20037;-50
2022/03/28 01:12:54;;;;;;;11.77;4.47;;;;;;;19.99;42.09;102854.69;5044813;28;20057;-51
2022/03/28 01:15:21;;;;;;;12.68;4.45;;;;;;;19.97;42.61;102841.31;5042398;28;20324;-50
2022/03/28 01:18:06;;;;;;;10.00;4.70;;;;;;;19.93;41.89;102850.59;5038422;28;20052;-50
2022/03/28 01:20:35;;;;;;;10.90;4.25;;;;;;;19.94;42.60;102848.81;5044535;28;20037;-50
2022/03/28 01:23:02;;;;;;;10.20;3.85;;;;;;;19.92;42.51;102842.66;5039815;28;20160;-50
2022/03/28 01:25:31;;;;;;;10.25;3.80;;;;;;;19.91;42.20;102841.81;5044131;28;20127;-48
2022/03/28 01:27:59;;;;;;;11.18;4.35;;;;;;;19.90;42.24;102845.47;5042505;28;20063;-51
2022/03/28 01:30:30;;;;;;;9.70;3.88;;;;;;;19.90;42.61;102836.53;5043435;28;20123;-50
2022/03/28 01:32:58;;;;;;;10.05;3.67;;;;;;;19.89;42.26;102827.59;5042540;28;20086;-48
2022/03/28 01:35:32;;;;;;;10.70;4.10;;;;;;;19.87;42.48;102815.25;5047003;28;20140;-49
2022/03/28 01:38:01;;;;;;;10.70;4.00;;;;;;;19.86;42.75;102824.28;5044943;28;20056;-51
2022/03/28 01:40:29;;;;;;;8.18;3.58;;;;;;;19.85;42.37;102826.13;5041331;28;20178;-49
2022/03/28 01:42:56;;;;;;;11.98;3.65;;;;;;;19.85;42.33;102820.75;5039560;28;20479;-51
2022/03/28 01:45:23;;;;;;;9.80;3.65;;;;;;;19.84;42.16;102815.47;5042963;28;20130;-49
2022/03/28 01:47:50;;;;;;;6.88;3.70;;;;;;;19.84;42.27;102810.09;5042633;28;20053;-50
2022/03/28 01:50:17;;;;;;;10.25;3.95;;;;;;;19.82;42.53;102812.03;5043996;28;20123;-51
2022/03/28 01:52:44;;;;;;;11.20;3.83;;;;;;;19.82;42.70;102803.97;5040699;28;20049;-52
2022/03/28 01:55:12;;;;;;;8.65;3.50;;;;;;;19.81;42.48;102810.34;5046694;28;20243;-51
2022/03/28 01:57:40;;;;;;;9.82;3.58;;;;;;;19.80;42.50;102808.63;5041324;28;20390;-50
2022/03/28 02:00:14;;;;;;;10.30;3.63;;;;;;;19.78;42.24;102802.47;5044499;28;20136;-50
2022/03/28 02:02:41;;;;;;;9.18;3.60;;;;;;;19.78;42.38;102799.78;5043983;28;20063;-51
2022/03/28 02:05:11;;;;;;;7.57;3.00;;;;;;;19.77;42.49;102803.47;5047102;28;20053;-50
2022/03/28 02:07:39;;;;;;;9.45;3.28;;;;;;;19.75;42.62;102800.06;5042315;28;20436;-50
2022/03/28 02:10:08;;;;;;;7.93;3.40;;;;;;;19.74;42.21;102793.81;5042475;28;20076;-49
2022/03/28 02:12:35;;;;;;;8.30;3.25;;;;;;;19.71;41.97;102792.22;5043824;28;20442;-51
2022/03/28 02:15:04;;;;;;;8.70;3.83;;;;;;;19.71;42.62;102797.59;5044351;28;20559;-46
2022/03/28 02:17:31;;;;;;;8.85;3.45;;;;;;;19.71;42.53;102799.44;5039534;28;20049;-50
2022/03/28 02:19:58;;;;;;;7.63;3.03;;;;;;;19.68;42.13;102792.44;5044871;28;20040;-47
2022/03/28 02:22:25;;;;;;;7.13;2.72;;;;;;;19.67;42.04;102785.34;5042113;28;20143;-50
2022/03/28 02:24:52;;;;;;;9.75;3.30;;;;;;;19.66;42.57;102778.25;5042611;28;20068;-48
2022/03/28 02:27:18;;;;;;;10.15;3.40;;;;;;;19.66;42.03;102774.72;5043808;28;20049;-49
2022/03/28 02:29:45;;;;;;;9.90;3.15;;;;;;;19.63;42.68;102767.72;5043422;28;20037;-47
2022/03/28 02:32:12;;;;;;;9.18;3.45;;;;;;;19.64;42.60;102777.50;5044536;28;20116;-49
2022/03/28 02:34:39;;;;;;;8.25;2.88;;;;;;;19.63;42.55;102773.09;5042667;28;20059;-48
2022/03/28 02:37:06;;;;;;;9.07;3.65;;;;;;;19.62;42.25;102768.72;5039549;28;20128;-50
2022/03/28 02:39:32;;;;;;;6.45;2.90;;;;;;;19.62;42.16;102757.09;5043174;28;20123;-50
2022/03/28 02:41:59;;;;;;;7.70;3.33;;;;;;;19.59;42.67;102760.84;5044319;28;20131;-50
2022/03/28 02:44:25;;;;;;;7.55;2.85;;;;;;;19.59;42.59;102754.59;5041588;28;20048;-49
2022/03/28 02:46:52;;;;;;;7.63;3.28;;;;;;;19.57;42.07;102754.69;5042735;28;20164;-48
2022/03/28 02:49:19;;;;;;;9.27;3.20;;;;;;;19.59;42.46;102751.91;5042624;28;20128;-51
2022/03/28 02:51:46;;;;;;;7.50;3.10;;;;;;;19.55;41.98;102745.91;5044269;28;20041;-50
2022/03/28 02:54:12;;;;;;;8.68;2.92;;;;;;;19.57;41.95;102748.47;5041914;28;20059;-47
2022/03/28 02:56:39;;;;;;;6.43;2.95;;;;;;;19.55;42.43;102743.22;5046448;28;20047;-50
2022/03/28 02:59:06;;;;;;;7.13;2.90;;;;;;;19.53;42.64;102742.47;5037676;28;20052;-50
2022/03/28 03:01:32;;;;;;;6.03;2.30;;;;;;;19.51;42.25;102733.66;5038497;28;20088;-51
2022/03/28 03:03:59;;;;;;;9.50;2.70;;;;;;;19.51;42.28;102738.19;5043314;28;20132;-50
2022/03/28 03:06:26;;;;;;;6.65;2.50;;;;;;;19.49;42.72;102730.22;5043587;28;20361;-47
2022/03/28 03:08:52;;;;;;;6.03;2.40;;;;;;;19.47;42.10;102732.19;5045027;28;20084;-50
2022/03/28 03:11:19;;;;;;;7.80;2.90;;;;;;;19.47;42.85;102733.03;5045797;28;20041;-48
2022/03/28 03:13:46;;;;;;;8.65;2.78;;;;;;;19.47;42.26;102732.19;5040374;28;20052;-51
2022/03/28 03:16:13;;;;;;;8.88;2.72;;;;;;;19.44;42.45;102733.25;5046212;28;20131;-47
2022/03/28 03:18:39;;;;;;;10.43;3.00;;;;;;;19.44;42.78;102733.25;5049255;28;20044;-47
2022/03/28 03:21:06;;;;;;;5.57;2.33;;;;;;;19.44;42.54;102724.34;5046512;28;20135;-49
2022/03/28 03:23:32;;;;;;;9.75;2.70;;;;;;;19.43;42.44;102726.19;5043345;28;20059;-49
2022/03/28 03:25:59;;;;;;;6.50;2.72;;;;;;;19.42;41.91;102718.25;5042277;28;20098;-47
2022/03/28 03:28:27;;;;;;;6.40;2.53;;;;;;;19.40;42.08;102715.66;5044596;28;20045;-50
2022/03/28 03:30:53;;;;;;;7.18;2.63;;;;;;;19.40;42.31;102717.47;5046719;28;20041;-51
2022/03/28 03:33:21;;;;;;;8.27;2.70;;;;;;;19.38;42.86;102716.75;5045016;28;20135;-48
2022/03/28 03:35:48;;;;;;;7.35;2.67;;;;;;;19.37;42.83;102713.19;5045722;28;20119;-50
2022/03/28 03:38:14;;;;;;;5.10;2.47;;;;;;;19.38;42.05;102719.44;5045735;28;20047;-50
2022/03/28 03:40:41;;;;;;;4.82;2.17;;;;;;;19.35;42.67;102719.69;5047341;28;20652;-50
2022/03/28 03:43:07;;;;;;;6.03;2.20;;;;;;;19.35;42.28;102717.84;5046839;28;20628;-50
2022/03/28 03:45:34;;;;;;;7.95;3.20;;;;;;;19.34;42.49;102712.59;5046904;28;21993;-50
2022/03/28 03:48:01;;;;;;;5.82;2.28;;;;;;;19.33;42.34;102706.31;5045248;28;20077;-51
2022/03/28 03:50:27;;;;;;;5.90;2.13;;;;;;;19.31;42.32;102705.59;5042657;28;20112;-50
2022/03/28 03:52:55;;;;;;;6.53;2.28;;;;;;;19.31;42.49;102694.00;5046109;28;20051;-51
2022/03/28 03:55:21;;;;;;;5.78;2.42;;;;;;;19.31;41.99;102696.69;5052604;28;20057;-50
2022/03/28 03:57:49;;;;;;;5.15;2.50;;;;;;;19.30;42.34;102698.53;5043663;28;20128;-49
2022/03/28 04:00:16;;;;;;;7.25;2.30;;;;;;;19.29;42.29;102698.63;5045308;28;20052;-47
2022/03/28 04:02:42;;;;;;;7.00;2.40;;;;;;;19.27;42.48;102693.38;5045134;28;20084;-51
2022/03/28 04:05:09;;;;;;;5.13;2.20;;;;;;;19.28;43.14;102694.22;5044514;28;20044;-50
2022/03/28 04:07:36;;;;;;;4.28;1.90;;;;;;;19.27;42.37;102693.38;5046518;28;20072;-51
2022/03/28 04:10:03;;;;;;;5.13;2.22;;;;;;;19.24;42.78;102682.84;5045647;28;20049;-48
2022/03/28 04:12:29;;;;;;;7.22;2.35;;;;;;;19.24;42.54;102677.47;5049835;28;20041;-50
2022/03/28 04:14:59;;;;;;;5.13;2.20;;;;;;;19.21;42.78;102678.53;5049932;28;20120;-49
2022/03/28 04:17:26;;;;;;;4.03;2.10;;;;;;;19.20;42.46;102676.84;5043693;28;20378;-49
2022/03/28 04:19:52;;;;;;;4.40;2.13;;;;;;;19.20;42.53;102679.53;5042634;28;20071;-50
2022/03/28 04:22:19;;;;;;;5.80;2.45;;;;;;;19.18;42.08;102675.25;5041118;28;20041;-49
2022/03/28 04:24:46;;;;;;;4.82;2.15;;;;;;;19.17;42.28;102678.91;5047477;28;20447;-49
2022/03/28 04:27:13;;;;;;;5.03;2.53;;;;;;;19.16;42.40;102677.19;5046241;28;20375;-49
2022/03/28 04:29:40;;;;;;;5.50;2.38;;;;;;;19.15;42.41;102679.03;5049528;28;20041;-51
2022/03/28 04:32:07;;;;;;;4.78;2.17;;;;;;;19.15;42.48;102679.03;5050138;28;20167;-49
2022/03/28 04:34:33;;;;;;;9.48;2.53;;;;;;;19.14;42.53;102668.41;5050796;28;20088;-50
2022/03/28 04:37:00;;;;;;;5.28;2.50;;;;;;;19.10;42.40;102670.47;5045407;28;20465;-49
2022/03/28 04:39:26;;;;;;;7.20;2.20;;;;;;;19.09;42.79;102675.94;5043859;28;20136;-50
2022/03/28 04:41:53;;;;;;;5.72;2.50;;;;;;;19.07;42.43;102673.38;5043483;28;20309;-52
2022/03/28 04:44:19;;;;;;;4.57;2.20;;;;;;;19.07;42.63;102668.00;5044393;28;20127;-48
2022/03/28 04:46:46;;;;;;;8.98;3.03;;;;;;;19.06;42.38;102666.28;5046206;28;20053;-48
2022/03/28 04:49:14;;;;;;;6.35;2.10;;;;;;;19.04;42.41;102667.38;5046629;28;20063;-48
2022/03/28 04:51:41;;;;;;;5.40;2.22;;;;;;;19.01;42.48;102665.75;5048928;28;20060;-47
2022/03/28 04:54:08;;;;;;;5.15;2.15;;;;;;;19.02;42.86;102666.63;5047930;28;20071;-50
2022/03/28 04:56:34;;;;;;;5.53;2.45;;;;;;;18.99;42.39;102668.56;5052011;28;20059;-47
2022/03/28 04:59:04;;;;;;;4.72;2.35;;;;;;;18.97;42.55;102665.16;5044724;28;20128;-47
2022/03/28 05:01:31;;;;;;;5.32;2.28;;;;;;;18.96;42.83;102666.09;5041386;28;21534;-50
2022/03/28 05:03:58;;;;;;;3.42;1.90;;;;;;;18.95;42.77;102667.09;5044100;28;20464;-48
2022/03/28 05:06:24;;;;;;;5.28;2.67;;;;;;;18.93;43.03;102679.75;5044153;28;20045;-51
2022/03/28 05:08:51;;;;;;;5.18;2.13;;;;;;;18.92;42.88;102682.56;5047988;28;20099;-51
2022/03/28 05:11:22;;;;;;;7.00;2.80;;;;;;;18.93;42.95;102686.97;5048070;28;20045;-51
2022/03/28 05:13:52;;;;;;;5.80;2.42;;;;;;;18.92;43.20;102688.81;5051463;28;20132;-49
2022/03/28 05:16:18;;;;;;;5.50;2.17;;;;;;;18.91;42.77;102692.47;5045291;28;20051;-49
2022/03/28 05:18:45;;;;;;;3.95;2.20;;;;;;;18.91;42.93;102688.94;5046192;28;20061;-52
2022/03/28 05:21:11;;;;;;;4.97;2.03;;;;;;;18.89;42.91;102686.34;5051094;28;20067;-49
2022/03/28 05:23:38;;;;;;;5.88;2.35;;;;;;;18.89;42.81;102675.59;5046047;28;20151;-52
2022/03/28 05:26:04;;;;;;;4.10;2.33;;;;;;;18.89;42.91;102677.44;5042454;28;20311;-51
2022/03/28 05:28:31;;;;;;;5.13;2.20;;;;;;;18.88;42.50;102678.41;5045407;28;20053;-51
2022/03/28 05:30:58;;;;;;;6.50;3.08;;;;;;;18.88;42.74;102667.66;5047986;28;20343;-50
2022/03/28 05:33:25;;;;;;;7.57;2.65;;;;;;;18.87;42.79;102661.44;5041186;28;20056;-52
2022/03/28 05:35:52;;;;;;;9.68;3.17;;;;;;;18.87;42.23;102660.59;5049779;28;20052;-51
2022/03/28 05:38:19;;;;;;;12.45;3.05;;;;;;;18.85;42.33;102649.94;5047870;28;20328;-50
2022/03/28 05:40:45;;;;;;;7.53;2.75;;;;;;;18.86;43.01;102662.41;5050003;28;20055;-52
2022/03/28 05:43:12;;;;;;;8.82;2.65;;;;;;;18.84;42.90;102658.97;5048422;28;20087;-50
2022/03/28 05:45:38;;;;;;;6.65;3.00;;;;;;;18.86;43.15;102650.81;5047029;28;20286;-51
2022/03/28 05:48:05;;;;;;;8.48;3.15;;;;;;;18.85;42.98;102652.63;5045080;28;20049;-52
2022/03/28 05:50:32;;;;;;;7.10;3.25;;;;;;;18.84;42.65;102645.53;5047581;28;20041;-52
2022/03/28 05:52:58;;;;;;;10.57;3.13;;;;;;;18.83;42.81;102635.78;5048043;28;20087;-49
2022/03/28 05:55:25;;;;;;;7.28;3.13;;;;;;;18.83;42.63;102621.47;5048111;28;20140;-50
2022/03/28 05:57:51;;;;;;;8.77;3.10;;;;;;;18.82;42.57;102628.69;5044952;28;20055;-51
2022/03/28 06:00:20;;;;;;;8.13;3.25;;;;;;;18.81;42.60;102616.22;5041070;28;20435;-50
2022/03/28 06:02:46;;;;;;;8.70;3.17;;;;;;;18.79;42.46;102625.38;5041711;28;20128;-53
2022/03/28 06:05:13;;;;;;;11.50;3.38;;;;;;;18.80;42.75;102635.13;5041623;28;20077;-52
2022/03/28 06:07:40;;;;;;;10.05;3.45;;;;;;;18.78;42.93;102632.59;5047856;28;20049;-51
2022/03/28 06:10:07;;;;;;;10.80;3.72;;;;;;;18.79;42.79;102633.44;5045697;28;20071;-52
2022/03/28 06:12:34;;;;;;;7.72;2.53;;;;;;;18.79;42.78;102633.44;5042105;28;20041;-49
2022/03/28 06:15:01;;;;;;;9.02;3.65;;;;;;;18.78;43.02;102640.63;5042545;28;20060;-50
2022/03/28 06:17:28;;;;;;;9.15;3.40;;;;;;;18.79;42.28;102636.97;5037282;28;20409;-52
2022/03/28 06:19:54;;;;;;;9.45;3.08;;;;;;;18.78;42.71;102640.63;5042864;28;20088;-49
2022/03/28 06:22:21;;;;;;;8.95;3.38;;;;;;;18.80;42.32;102638.69;5042171;28;20593;-51
2022/03/28 06:24:47;;;;;;;6.38;3.30;;;;;;;18.80;42.37;102640.50;5044977;28;20103;-51
2022/03/28 06:27:14;;;;;;;9.25;2.92;;;;;;;18.80;42.49;102645.88;5040757;28;20066;-51
2022/03/28 06:29:41;;;;;;;9.05;3.20;;;;;;;18.80;42.46;102641.38;5045636;28;20110;-51
2022/03/28 06:32:08;;;;;;;6.72;3.42;;;;;;;18.80;42.29;102632.44;5046684;28;20076;-51
2022/03/28 06:34:34;;;;;;;9.93;2.90;;;;;;;18.81;42.38;102634.16;5048257;28;20048;-51
2022/03/28 06:37:01;;;;;;;4.95;2.88;;;;;;;18.82;42.30;102638.59;5046637;28;20050;-48
2022/03/28 06:39:28;;;;;;;5.53;2.80;;;;;;;18.83;42.15;102635.78;5038087;28;20088;-52
2022/03/28 06:41:54;;;;;;;6.72;3.00;;;;;;;18.85;42.61;102627.59;5041748;28;20053;-49
2022/03/28 06:44:21;;;;;;;6.78;2.72;;;;;;;18.86;42.41;102634.69;5042997;28;20128;-50
2022/03/28 06:46:47;;;;;;;7.32;2.65;;;;;;;18.87;42.34;102631.03;5046237;28;20327;-49
2022/03/28 06:49:14;;;;;;;5.63;2.78;;;;;;;18.87;42.00;102625.66;5047482;28;20045;-50
2022/03/28 06:51:40;;;;;;;5.53;2.33;;;;;;;18.89;42.37;102624.53;5046345;28;20039;-51
2022/03/28 06:54:08;;;;;;;6.75;2.60;;;;;;;18.91;41.93;102629.81;5045559;28;20076;-50
2022/03/28 06:56:38;;;;;;;7.05;2.95;;;;;;;18.91;42.08;102625.31;5047392;28;20059;-51
2022/03/28 06:59:05;;;;;;;5.80;3.03;;;;;;;18.91;42.42;102619.06;5047737;28;20128;-47
2022/03/28 07:01:32;;;;;;;3.47;2.20;;;;;;;18.89;41.99;102623.69;5047738;28;20076;-49
2022/03/28 07:03:58;;;;;;;7.07;2.97;;;;;;;18.88;42.09;102617.47;5043152;28;20655;-50
2022/03/28 07:06:25;;;;;;;4.50;2.63;;;;;;;18.88;42.10;102616.63;5043992;28;20371;-49
2022/03/28 07:08:53;;;;;;;4.15;2.35;;;;;;;18.90;42.02;102614.69;5042705;28;20437;-49
2022/03/28 07:11:20;;;;;;;5.75;2.90;;;;;;;18.91;41.82;102622.63;5045906;28;20041;-48
2022/03/28 07:13:46;;;;;;;5.00;2.53;;;;;;;18.91;41.79;102619.94;5045576;28;20302;-50
2022/03/28 07:16:13;;;;;;;6.72;2.65;;;;;;;18.93;41.82;102617.97;5037947;28;20329;-48
2022/03/28 07:18:40;;;;;;;7.60;3.05;;;;;;;18.93;42.17;102614.44;5043561;28;20163;-47
2022/03/28 07:21:07;;;;;;;3.35;2.00;;;;;;;18.94;42.16;102605.41;5045484;28;20057;-48
2022/03/28 07:23:33;;;;;;;4.15;2.17;;;;;;;18.93;41.71;102614.44;5047627;28;20055;-48
2022/03/28 07:26:00;;;;;;;4.80;2.08;;;;;;;18.95;42.01;102615.19;5044388;28;20118;-47
2022/03/28 07:28:27;;;;;;;3.28;2.25;;;;;;;18.94;41.83;102608.09;5045560;28;20082;-47
2022/03/28 07:30:53;;;;;;;3.70;2.50;;;;;;;18.94;41.59;102603.59;5050256;28;20435;-47
2022/03/28 07:33:20;;;;;;;3.47;2.28;;;;;;;18.95;41.97;102605.28;5050864;28;20048;-47
2022/03/28 07:35:47;;;;;;;6.05;2.47;;;;;;;18.97;42.01;102597.09;5046771;28;20520;-49
2022/03/28 07:38:14;;;;;;;4.15;2.25;;;;;;;18.98;41.65;102602.38;5048584;28;20045;-47
2022/03/28 07:40:45;;;;;;;4.50;2.42;;;;;;;19.00;41.60;102604.94;5045823;28;20041;-49
2022/03/28 07:43:12;;;;;;;4.13;2.13;;;;;;;19.04;41.58;102603.72;5049309;28;20382;-50
2022/03/28 07:45:38;;;;;;;4.45;2.17;;;;;;;19.05;41.63;102605.44;5047740;28;20151;-51
2022/03/28 07:48:06;;;;;;;3.28;1.88;;;;;;;19.06;41.84;102599.09;5048805;28;20044;-49
2022/03/28 07:50:34;;;;;;;4.63;2.08;;;;;;;19.08;41.80;102607.03;5045893;28;20052;-50
2022/03/28 07:53:01;;;;;;;3.03;1.90;;;;;;;19.10;42.09;102602.41;5050364;28;20048;-50
2022/03/28 07:55:28;;;;;;;3.53;2.20;;;;;;;19.11;42.04;102604.97;5048967;28;20385;-47
2022/03/28 07:57:55;;;;;;;3.50;1.95;;;;;;;19.13;41.34;102603.00;5041775;28;20136;-51
2022/03/28 08:00:22;;;;;;;3.10;2.03;;;;;;;19.14;41.62;102602.06;5045374;28;20044;-47
2022/03/28 08:02:51;;;;;;;3.25;1.98;;;;;;;19.16;41.40;102593.88;5046245;28;20133;-49
2022/03/28 08:05:18;;;;;;;3.28;1.83;;;;;;;19.16;41.96;102597.41;5046132;28;20090;-51
2022/03/28 08:07:44;;;;;;;3.05;1.83;;;;;;;19.17;41.65;102584.81;5048269;28;20049;-51
2022/03/28 08:10:13;;;;;;;3.83;1.73;;;;;;;19.19;41.78;102593.63;5048899;28;20076;-47
2022/03/28 08:12:42;;;;;;;2.55;1.98;;;;;;;19.18;41.59;102591.94;5048567;28;20083;-48
2022/03/28 08:15:09;;;;;;;3.25;1.90;;;;;;;19.18;41.77;102598.16;5052902;28;20430;-50
2022/03/28 08:17:37;;;;;;;3.65;2.05;;;;;;;19.18;42.01;102591.94;5044733;28;20048;-51
2022/03/28 08:20:06;;;;;;;4.25;2.13;;;;;;;19.18;41.60;102590.09;5044691;28;20492;-49
2022/03/28 08:22:39;;;;;;;2.67;1.95;;;;;;;19.18;41.52;102590.09;5046118;28;20550;-46
2022/03/28 08:25:07;;;;;;;4.85;2.05;;;;;;;19.19;41.79;102589.09;5046911;28;20056;-50
2022/03/28 08:27:34;;;;;;;2.35;1.67;;;;;;;19.19;41.57;102585.56;5047665;28;20044;-49
2022/03/28 08:30:01;;;;;;;2.47;1.73;;;;;;;19.20;42.11;102582.75;5047288;28;20055;-52
2022/03/28 08:32:27;;;;;;;3.38;2.00;;;;;;;19.21;41.91;102581.75;5047320;28;20071;-51
2022/03/28 08:34:54;;;;;;;4.75;2.33;;;;;;;19.23;41.84;102587.03;5043894;28;20064;-52
2022/03/28 08:37:21;;;;;;;2.85;1.63;;;;;;;19.23;41.72;102587.91;5048192;28;20135;-50
2022/03/28 08:39:54;;;;;;;2.65;1.70;;;;;;;19.26;41.97;102592.19;5043103;28;20460;-50
2022/03/28 08:42:23;;;;;;;5.78;1.92;;;;;;;19.28;41.43;102586.69;5043617;28;20715;-51
2022/03/28 08:44:50;;;;;;;2.55;1.65;;;;;;;19.29;42.13;102583.00;5046528;28;20045;-51
2022/03/28 08:47:18;;;;;;;2.67;2.05;;;;;;;19.30;41.71;102582.06;5047366;28;20041;-47
2022/03/28 08:49:50;;;;;;;2.88;1.95;;;;;;;19.32;41.48;102585.47;5045047;28;20055;-48
2022/03/28 08:52:17;;;;;;;4.00;1.77;;;;;;;19.34;41.95;102591.59;5043628;28;20048;-49
2022/03/28 08:54:44;;;;;;;3.38;1.73;;;;;;;19.35;41.53;102585.22;5047093;28;20510;-50
2022/03/28 08:57:15;;;;;;;2.30;1.52;;;;;;;19.36;41.86;102577.03;5042878;28;20144;-50
2022/03/28 08:59:42;;;;;;;2.83;1.73;;;;;;;19.37;41.99;102577.88;5045479;28;20056;-50
2022/03/28 09:02:31;;;;;;;4.45;2.05;;;;;;;19.38;41.67;102576.94;5039272;28;20160;-50
2022/03/28 09:04:58;;;;;;;2.13;1.70;;;;;;;19.40;41.30;102578.50;5043502;28;20049;-52
2022/03/28 09:07:28;;;;;;;3.30;1.67;;;;;;;19.41;41.96;102577.53;5045802;28;20118;-49
2022/03/28 09:09:59;;;;;;;3.55;1.90;;;;;;;19.43;41.31;102569.34;5046168;28;20045;-48
2022/03/28 09:12:26;;;;;;;2.85;1.70;;;;;;;19.45;41.59;102572.75;5048440;28;20446;-48
2022/03/28 09:14:58;;;;;;;2.38;1.98;;;;;;;19.46;41.80;102572.66;5044912;28;20049;-47
2022/03/28 09:17:25;;;;;;;5.07;1.85;;;;;;;19.47;41.75;102557.38;5043805;28;20099;-46
2022/03/28 09:19:59;;;;;;;2.50;1.77;;;;;;;19.48;41.42;102559.09;5045307;28;20124;-49
2022/03/28 09:22:32;;;;;;;2.72;2.03;;;;;;;19.51;41.88;102556.16;5048972;28;20134;-49
2022/03/28 09:25:05;;;;;;;4.10;1.77;;;;;;;19.52;41.18;102552.47;5046519;28;20159;-48
2022/03/28 09:27:35;;;;;;;2.80;1.77;;;;;;;19.53;41.23;102547.97;5049226;28;20060;-46
2022/03/28 09:30:30;;;;;;;1.92;1.63;;;;;;;19.55;41.76;102546.88;5047328;28;20045;-47
2022/03/28 09:32:57;;;;;;;3.35;2.28;;;;;;;19.59;41.74;102548.34;5046580;28;20060;-49
2022/03/28 09:35:26;;;;;;;2.55;1.65;;;;;;;19.60;41.22;102547.34;5042539;28;20057;-47
2022/03/28 09:37:58;;;;;;;2.85;1.85;;;;;;;19.63;41.92;102559.75;5041952;28;20314;-47
2022/03/28 09:40:34;;;;;;;2.88;1.92;;;;;;;19.63;41.60;102557.91;5042941;28;20051;-48
2022/03/28 09:43:03;;;;;;;2.53;1.70;;;;;;;19.67;41.45;102548.59;5046818;28;20067;-47
2022/03/28 09:45:34;;;;;;;2.85;2.10;;;;;;;19.70;41.80;102551.06;5045223;28;20084;-48
2022/03/28 09:48:02;;;;;;;2.95;2.00;;;;;;;19.73;41.89;102545.41;5047720;28;20051;-47
2022/03/28 09:50:38;;;;;;;2.88;1.80;;;;;;;19.76;41.28;102538.94;5045764;28;20438;-50
2022/03/28 09:53:27;;;;;;;4.38;2.13;;;;;;;19.79;41.92;102535.16;5050398;28;20051;-50
2022/03/28 09:56:00;;;;;;;3.03;1.80;;;;;;;19.82;41.72;102530.38;5045923;28;20045;-46
2022/03/28 09:58:46;;;;;;;3.13;1.77;;;;;;;19.85;41.48;102540.03;5041353;28;20072;-48
2022/03/28 10:01:15;;;;;;;2.75;1.98;;;;;;;19.86;41.64;102539.91;5046951;28;20321;-49
2022/03/28 10:03:54;;;;;;;2.42;1.63;;;;;;;19.89;42.03;102533.41;5044860;28;20037;-51
2022/03/28 10:06:22;;;;;;;5.72;2.10;;;;;;;19.92;41.65;102527.78;5045825;28;20450;-52
2022/03/28 10:08:50;;;;;;;2.88;2.03;;;;;;;19.95;42.32;102536.47;5042495;28;20045;-50
2022/03/28 10:11:17;;;;;;;2.63;1.60;;;;;;;20.00;42.25;102536.09;5047932;28;20080;-49
2022/03/28 10:13:44;;;;;;;2.22;1.70;;;;;;;20.04;42.24;102529.47;5047672;28;20041;-51
2022/03/28 10:16:12;;;;;;;4.20;2.05;;;;;;;20.09;41.87;102521.00;5044385;28;20443;-49
2022/03/28 10:18:44;;;;;;;3.33;1.98;;;;;;;20.15;42.38;102524.06;5047669;28;20124;-49
2022/03/28 10:21:31;;;;;;;3.33;1.75;;;;;;;20.20;42.11;102516.47;5044962;28;20152;-49
2022/03/28 10:24:16;;;;;;;3.83;1.70;;;;;;;20.28;41.70;102512.28;5046710;28;20151;-51
2022/03/28 10:26:52;;;;;;;2.78;1.77;;;;;;;20.33;41.61;102510.91;5043064;28;20127;-49
2022/03/28 10:29:22;;;;;;;2.85;1.70;;;;;;;20.39;41.71;102509.56;5043386;28;20524;-49
2022/03/28 10:31:55;;;;;;;5.70;2.10;;;;;;;20.43;42.08;102506.47;5050085;28;20397;-49
2022/03/28 10:34:56;;;;;;;2.25;1.80;;;;;;;20.49;41.56;102507.81;5046485;28;20103;-52
2022/03/28 10:37:36;;;;;;;2.55;1.80;;;;;;;20.54;41.31;102497.50;5046426;28;20142;-51
2022/03/28 10:40:11;;;;;;;2.15;1.63;;;;;;;20.60;41.05;102506.91;5043777;28;20040;-51
2022/03/28 10:43:11;;;;;;;2.55;1.67;;;;;;;20.64;41.01;102494.88;5047948;28;20041;-52
2022/03/28 10:45:47;;;;;;;3.13;1.95;;;;;;;20.69;41.13;102488.09;5045770;28;20049;-51
2022/03/28 10:48:15;;;;;;;3.70;1.73;;;;;;;20.73;41.31;102482.47;5044733;28;20045;-52
2022/03/28 10:50:48;;;;;;;2.40;1.50;;;;;;;20.76;41.39;102482.22;5048482;28;20041;-52
2022/03/28 10:53:15;;;;;;;;;;;;;;;20.78;40.67;102481.06;5047641;28;20043;-50
2022/03/28 10:55:45;;;;;;;2.35;1.70;;;;;;;20.84;40.96;102487.78;5044335;28;19920;-49
2022/03/28 10:58:18;;;;;;;5.38;1.55;;;;;;;20.84;41.01;102480.56;5041502;28;20050;-48
2022/03/28 11:01:11;;;;;;;2.70;1.60;;;;;;;20.87;40.93;102490.22;5045001;28;20051;-51
2022/03/28 11:03:47;;;;;;;4.05;1.77;;;;;;;20.91;40.58;102470.13;5048015;28;20092;-52
2022/03/28 11:06:15;;;;;;;2.00;1.25;;;;;;;20.93;40.44;102465.44;5047508;28;20135;-51
2022/03/28 11:08:47;;;;;;;2.80;2.05;;;;;;;20.94;40.30;102468.00;5054111;28;20120;-53
2022/03/28 11:11:21;;;;;;;4.07;1.90;;;;;;;20.97;40.77;102466.00;5052336;28;20067;-52
2022/03/28 11:13:59;;;;;;;2.33;1.45;;;;;;;20.97;40.99;102450.69;5047454;28;20124;-50
2022/03/28 11:16:39;;;;;;;3.88;1.77;;;;;;;20.99;40.50;102458.66;5045784;28;20045;-51
2022/03/28 11:19:29;;;;;;;5.75;1.65;;;;;;;20.99;40.98;102454.13;5045541;28;20081;-51
2022/03/28 11:22:10;;;;;;;3.28;2.17;;;;;;;21.01;40.32;102448.59;5049304;28;20083;-52
2022/03/28 11:24:56;;;;;;;2.80;1.75;;;;;;;21.01;40.43;102453.97;5049996;28;20129;-48
2022/03/28 11:27:25;;;;;;;2.67;1.73;;;;;;;21.03;40.44;102446.63;5047999;28;20045;-49
2022/03/28 11:30:04;;;;;;;3.28;1.67;;;;;;;21.04;40.62;102441.09;5047336;28;20120;-52
2022/03/28 11:32:33;;;;;;;4.07;1.75;;;;;;;21.04;40.35;102435.69;5050903;28;20041;-50